Terminal Aerodrome Forecast
Issued by NWS

Home | Current Version | Previous Version | Text Only | Print | Product List | Glossary On
Versions: 1 2 3 4 5 6 7 8 9 10 11 12 13
000
FTUS41 KPBZ 182300
TAFBVI
TAF
KBVI 182329Z 1900/1924 32007KT P6SM BKN070
     FM190300 34005KT P6SM SKC
      AMD NOT SKED 1901/1911=

USA.gov is the U.S. government's official web portal to all federal, state and local government web resources and services.